createdAt,value
2022-12-22T00:01:27.600Z,16.00
2022-12-22T00:04:14.452Z,15.25
2022-12-22T00:06:59.567Z,15.00
2022-12-22T00:09:45.031Z,15.00
2022-12-22T00:12:30.562Z,14.25
2022-12-22T00:15:16.233Z,15.00
2022-12-22T00:18:01.487Z,12.50
2022-12-22T00:20:48.643Z,14.00
2022-12-22T00:23:33.918Z,12.50
2022-12-22T00:26:19.375Z,13.00
2022-12-22T00:29:04.649Z,12.75
2022-12-22T00:31:50.276Z,13.25
2022-12-22T00:34:37.664Z,13.50
2022-12-22T00:37:24.594Z,12.00
2022-12-22T00:40:09.772Z,12.00
2022-12-22T00:42:55.473Z,11.00
2022-12-22T00:45:40.899Z,12.75
2022-12-22T00:48:27.079Z,10.00
2022-12-22T00:51:13.249Z,11.75
2022-12-22T00:53:59.820Z,10.00
2022-12-22T00:56:45.084Z,11.00
2022-12-22T00:59:30.572Z,10.50
2022-12-22T01:02:16.291Z,10.00
2022-12-22T01:05:01.917Z,11.00
2022-12-22T01:07:47.329Z,9.00
2022-12-22T01:10:34.497Z,8.25
2022-12-22T01:13:19.890Z,9.00
2022-12-22T01:16:05.297Z,9.00
2022-12-22T01:18:50.594Z,9.00
2022-12-22T01:21:36.305Z,8.00
2022-12-22T01:24:24.071Z,7.75
2022-12-22T01:27:10.786Z,8.00
2022-12-22T01:29:56.015Z,8.00
2022-12-22T01:32:41.624Z,8.00
2022-12-22T01:35:28.674Z,7.00
2022-12-22T01:38:13.874Z,8.50
2022-12-22T01:40:59.393Z,8.00
2022-12-22T01:43:45.922Z,7.25
2022-12-22T01:46:41.402Z,7.50
2022-12-22T01:49:27.625Z,7.00
2022-12-22T01:52:12.889Z,7.00
2022-12-22T01:54:58.392Z,6.50
2022-12-22T01:57:43.680Z,7.00
2022-12-22T02:00:31.636Z,6.00
2022-12-22T02:03:18.708Z,6.00
2022-12-22T02:06:10.840Z,6.00
2022-12-22T02:08:56.519Z,7.00
2022-12-22T02:11:46.170Z,6.50
2022-12-22T02:14:35.553Z,6.00
2022-12-22T02:17:26.282Z,6.00
2022-12-22T02:20:47.513Z,5.00
2022-12-22T02:23:37.022Z,5.00
2022-12-22T02:26:36.398Z,6.00
2022-12-22T02:29:21.800Z,6.00
2022-12-22T02:32:07.309Z,4.00
2022-12-22T02:34:52.392Z,4.75
2022-12-22T02:37:40.982Z,4.75
2022-12-22T02:40:29.518Z,4.00
2022-12-22T02:43:20.039Z,4.25
2022-12-22T02:46:07.873Z,4.00
2022-12-22T02:48:56.116Z,4.25
2022-12-22T02:51:43.351Z,4.75
2022-12-22T02:54:28.697Z,4.00
2022-12-22T02:57:14.057Z,4.00
2022-12-22T03:00:00.735Z,4.00
2022-12-22T03:02:46.580Z,4.00
2022-12-22T03:05:32.187Z,5.00
2022-12-22T03:08:17.420Z,4.00
2022-12-22T03:11:03.095Z,3.00
2022-12-22T03:13:48.256Z,4.50
2022-12-22T03:16:35.063Z,4.00
2022-12-22T03:19:21.024Z,4.00
2022-12-22T03:22:06.738Z,3.00
2022-12-22T03:24:51.879Z,3.50
2022-12-22T03:27:19.789Z,3.00
2022-12-22T03:29:47.684Z,3.00
2022-12-22T03:32:16.944Z,3.25
2022-12-22T03:34:45.142Z,3.00
2022-12-22T03:37:13.029Z,3.00
2022-12-22T03:39:40.913Z,3.00
2022-12-22T03:42:28.589Z,3.00
2022-12-22T03:45:13.664Z,2.25
2022-12-22T03:47:43.001Z,2.50
2022-12-22T03:50:11.665Z,3.00
2022-12-22T03:52:39.872Z,3.00
2022-12-22T03:55:08.466Z,3.00
2022-12-22T03:57:36.313Z,2.50
2022-12-22T04:00:04.713Z,2.00
2022-12-22T04:02:33.004Z,3.00
2022-12-22T04:05:02.403Z,2.25
2022-12-22T04:07:30.348Z,2.00
2022-12-22T04:10:15.549Z,2.00
2022-12-22T04:12:55.750Z,3.00
2022-12-22T04:15:23.835Z,3.00
2022-12-22T04:17:51.708Z,2.00
2022-12-22T04:20:21.745Z,1.00
2022-12-22T04:22:49.946Z,1.50
2022-12-22T04:25:18.056Z,2.00
2022-12-22T04:27:45.997Z,2.00
2022-12-22T04:30:15.793Z,2.00
2022-12-22T04:32:43.651Z,1.50
2022-12-22T04:35:11.905Z,2.00
2022-12-22T04:37:41.171Z,1.75
2022-12-22T04:40:09.810Z,2.00
2022-12-22T04:42:37.751Z,2.00
2022-12-22T04:45:08.683Z,1.00
2022-12-22T04:47:36.577Z,1.50
2022-12-22T04:50:06.077Z,1.00
2022-12-22T04:52:33.955Z,2.00
2022-12-22T04:55:03.482Z,2.00
2022-12-22T04:57:34.302Z,1.75
2022-12-22T05:00:09.526Z,2.00
2022-12-22T05:02:37.633Z,1.00
2022-12-22T05:05:06.354Z,1.00
2022-12-22T05:07:34.220Z,1.00
2022-12-22T05:10:03.591Z,1.00
2022-12-22T05:12:48.898Z,2.00
2022-12-22T05:15:16.870Z,1.00
2022-12-22T05:17:44.755Z,1.25
2022-12-22T05:20:12.860Z,1.00
2022-12-22T05:22:40.789Z,1.00
2022-12-22T05:25:11.024Z,1.75
2022-12-22T05:27:39.049Z,1.75
2022-12-22T05:30:10.243Z,2.00
2022-12-22T05:32:38.126Z,4.25
2022-12-22T05:35:06.957Z,3.75
2022-12-22T05:37:34.993Z,5.00
2022-12-22T05:40:02.894Z,6.75
2022-12-22T05:42:38.413Z,5.25
2022-12-22T05:45:13.402Z,5.00
2022-12-22T05:47:41.318Z,6.25
2022-12-22T05:50:09.851Z,6.00
2022-12-22T05:52:37.726Z,6.00
2022-12-22T05:55:06.656Z,7.25
2022-12-22T05:57:36.010Z,7.00
2022-12-22T06:00:04.625Z,7.50
2022-12-22T06:02:32.937Z,7.50
2022-12-22T06:05:01.317Z,8.00
2022-12-22T06:07:29.227Z,9.25
2022-12-22T06:09:57.309Z,8.75
2022-12-22T06:12:25.197Z,9.00
2022-12-22T06:14:54.754Z,11.00
2022-12-22T06:17:22.674Z,9.00
2022-12-22T06:19:50.564Z,9.75
2022-12-22T06:22:18.490Z,9.25
2022-12-22T06:24:46.634Z,10.00
2022-12-22T06:27:14.645Z,10.75
2022-12-22T06:29:42.519Z,12.50
2022-12-22T06:32:11.927Z,11.00
2022-12-22T06:34:40.107Z,10.50
2022-12-22T06:37:07.984Z,11.00
2022-12-22T06:39:35.851Z,12.00
2022-12-22T06:42:21.455Z,11.50
2022-12-22T06:44:50.669Z,11.00
2022-12-22T06:47:19.925Z,11.00
2022-12-22T06:49:47.801Z,10.00
2022-12-22T06:52:15.705Z,10.25
2022-12-22T06:54:43.865Z,11.00
2022-12-22T06:57:11.710Z,11.50
2022-12-22T06:59:39.702Z,12.25
2022-12-22T07:02:07.666Z,12.00
2022-12-22T07:04:37.316Z,10.25
2022-12-22T07:07:05.192Z,10.75
2022-12-22T07:09:33.076Z,11.00
2022-12-22T07:12:00.980Z,11.00
2022-12-22T07:14:29.177Z,9.75
2022-12-22T07:16:57.105Z,11.00
2022-12-22T07:19:24.966Z,11.00
2022-12-22T07:21:54.243Z,9.75
2022-12-22T07:24:24.937Z,9.00
2022-12-22T07:26:52.867Z,10.00
2022-12-22T07:29:20.786Z,10.75
2022-12-22T07:31:48.761Z,9.50
2022-12-22T07:34:17.051Z,9.00
2022-12-22T07:36:44.974Z,8.75
2022-12-22T07:39:14.420Z,10.00
2022-12-22T07:41:59.489Z,9.25
2022-12-22T07:44:27.338Z,8.25
2022-12-22T07:46:55.572Z,9.75
2022-12-22T07:49:41.029Z,9.00
2022-12-22T07:52:08.939Z,9.00
2022-12-22T07:54:42.096Z,9.00
2022-12-22T07:57:10.299Z,7.75
2022-12-22T07:59:38.183Z,8.00
2022-12-22T08:02:06.181Z,9.00
2022-12-22T08:04:34.427Z,7.00
2022-12-22T08:07:02.282Z,8.25
2022-12-22T08:09:30.172Z,7.00
2022-12-22T08:11:59.764Z,8.25
2022-12-22T08:14:27.656Z,8.00
2022-12-22T08:16:55.541Z,7.00
2022-12-22T08:19:23.509Z,9.00
2022-12-22T08:21:53.184Z,8.00
2022-12-22T08:24:21.791Z,7.25
2022-12-22T08:26:50.679Z,7.00
2022-12-22T08:29:20.701Z,7.00
2022-12-22T08:31:48.658Z,6.00
2022-12-22T08:34:17.002Z,6.00
2022-12-22T08:36:46.965Z,6.00
2022-12-22T08:39:14.833Z,6.00
2022-12-22T08:41:51.824Z,7.00
2022-12-22T08:44:22.321Z,6.00
2022-12-22T08:46:50.423Z,6.50
2022-12-22T08:49:18.449Z,7.00
2022-12-22T08:51:46.408Z,5.75
2022-12-22T08:54:14.607Z,6.25
2022-12-22T08:56:42.525Z,6.00
2022-12-22T08:59:10.416Z,6.00
2022-12-22T09:01:42.751Z,5.00
2022-12-22T09:04:11.247Z,5.75
2022-12-22T09:06:41.402Z,5.00
2022-12-22T09:09:10.224Z,6.00
2022-12-22T09:11:38.312Z,5.00
2022-12-22T09:14:06.610Z,5.00
2022-12-22T09:16:34.602Z,5.00
2022-12-22T09:19:03.896Z,4.00
2022-12-22T09:21:31.851Z,5.00
2022-12-22T09:24:00.178Z,4.50
2022-12-22T09:26:29.011Z,5.00
2022-12-22T09:28:57.545Z,4.75
2022-12-22T09:31:25.892Z,4.75
2022-12-22T09:33:54.094Z,5.00
2022-12-22T09:36:24.705Z,4.00
2022-12-22T09:38:52.735Z,5.00
2022-12-22T09:41:21.407Z,4.25
2022-12-22T09:43:49.557Z,5.00
2022-12-22T09:46:20.872Z,4.00
2022-12-22T09:48:48.944Z,5.00
2022-12-22T09:51:22.708Z,4.25
2022-12-22T09:53:56.935Z,5.00
2022-12-22T09:56:24.885Z,4.00
2022-12-22T09:58:52.766Z,3.00
2022-12-22T10:01:34.238Z,4.00
2022-12-22T10:04:04.105Z,4.00
2022-12-22T10:06:35.844Z,4.00
2022-12-22T10:09:14.790Z,4.00
2022-12-22T10:11:54.238Z,5.00
2022-12-22T10:14:22.526Z,3.25
2022-12-22T10:16:50.477Z,4.00
2022-12-22T10:19:18.392Z,4.00
2022-12-22T10:21:47.221Z,4.00
2022-12-22T10:24:26.687Z,3.50
2022-12-22T10:26:56.097Z,4.00
2022-12-22T10:29:23.960Z,3.50
2022-12-22T10:32:00.008Z,4.25
2022-12-22T10:34:28.294Z,4.00
2022-12-22T10:36:57.926Z,4.00
2022-12-22T10:39:27.961Z,2.00
2022-12-22T10:41:58.371Z,3.00
2022-12-22T10:44:27.386Z,4.00
2022-12-22T10:46:55.827Z,4.75
2022-12-22T10:49:24.485Z,3.00
2022-12-22T10:51:53.483Z,3.75
2022-12-22T10:54:33.310Z,3.00
2022-12-22T10:57:08.432Z,3.00
2022-12-22T10:59:37.360Z,3.75
2022-12-22T11:02:33.749Z,3.25
2022-12-22T11:05:06.700Z,3.50
2022-12-22T11:07:36.120Z,4.00
2022-12-22T11:10:12.580Z,3.25
2022-12-22T11:12:43.247Z,3.75
2022-12-22T11:15:23.789Z,3.00
2022-12-22T11:17:56.411Z,3.00
2022-12-22T11:20:39.096Z,3.25
2022-12-22T11:23:09.903Z,3.00
2022-12-22T11:25:44.072Z,3.00
2022-12-22T11:28:22.518Z,3.00
2022-12-22T11:30:55.530Z,2.00
2022-12-22T11:33:30.682Z,3.00
2022-12-22T11:35:59.613Z,3.00
2022-12-22T11:38:37.738Z,4.00
2022-12-22T11:41:10.830Z,3.00
2022-12-22T11:43:44.260Z,3.00
2022-12-22T11:46:18.584Z,3.75
2022-12-22T11:48:54.847Z,3.00
2022-12-22T11:51:28.831Z,3.00
2022-12-22T11:54:10.890Z,3.25
2022-12-22T11:56:42.115Z,3.00
2022-12-22T11:59:20.741Z,3.00
2022-12-22T12:02:13.743Z,3.00
2022-12-22T12:05:05.009Z,2.50
2022-12-22T12:07:34.933Z,3.00
2022-12-22T12:10:07.633Z,3.00
2022-12-22T12:12:42.270Z,3.00
2022-12-22T12:15:23.768Z,2.50
2022-12-22T12:18:00.212Z,3.00
2022-12-22T12:20:37.179Z,2.50
2022-12-22T12:23:14.401Z,3.00
2022-12-22T12:25:43.149Z,3.25
2022-12-22T12:28:19.139Z,3.00
2022-12-22T12:30:53.149Z,3.00
2022-12-22T12:33:23.728Z,2.25
2022-12-22T12:35:55.033Z,3.00
2022-12-22T12:39:05.726Z,4.00
2022-12-22T12:41:19.867Z,3.25
2022-12-22T12:43:49.451Z,3.00
2022-12-22T12:46:46.138Z,4.00
2022-12-22T12:49:46.223Z,2.00
2022-12-22T12:52:14.136Z,3.00
2022-12-22T12:54:42.953Z,3.00
2022-12-22T12:57:46.413Z,3.50
2022-12-22T13:00:48.744Z,2.75
2022-12-22T13:04:02.467Z,3.00
2022-12-22T13:06:57.445Z,3.00
2022-12-22T13:12:34.996Z,2.00
2022-12-22T13:15:02.981Z,3.00
2022-12-22T13:17:40.271Z,3.25
2022-12-22T13:20:13.211Z,3.00
2022-12-22T13:22:41.385Z,2.00
2022-12-22T13:25:14.775Z,3.00
2022-12-22T13:27:42.703Z,3.00
2022-12-22T13:30:14.824Z,3.00
2022-12-22T13:32:44.291Z,2.00
2022-12-22T13:35:37.407Z,2.75
2022-12-22T13:38:06.194Z,2.00
2022-12-22T13:40:37.067Z,2.25
2022-12-22T13:43:06.035Z,2.00
2022-12-22T13:45:36.177Z,3.00
2022-12-22T13:48:07.760Z,3.00
2022-12-22T13:50:37.417Z,2.50
2022-12-22T13:53:06.437Z,2.75
2022-12-22T13:55:34.572Z,3.00
2022-12-22T13:58:05.287Z,3.00
2022-12-22T14:00:33.240Z,3.00
2022-12-22T14:03:01.323Z,2.00
2022-12-22T14:05:33.117Z,2.00
2022-12-22T14:08:04.972Z,2.25
2022-12-22T14:10:37.772Z,3.00
2022-12-22T14:13:12.572Z,2.00
2022-12-22T14:15:40.761Z,3.00
2022-12-22T14:18:08.687Z,2.00
2022-12-22T14:20:40.228Z,2.75
2022-12-22T14:23:09.611Z,2.50
2022-12-22T14:25:39.077Z,2.00
2022-12-22T14:28:07.613Z,2.00
2022-12-22T14:30:38.944Z,2.25
2022-12-22T14:33:18.815Z,2.25
2022-12-22T14:35:48.058Z,2.00
2022-12-22T14:38:20.022Z,3.00
2022-12-22T14:40:54.437Z,2.00
2022-12-22T14:43:27.026Z,2.00
2022-12-22T14:46:02.995Z,2.00
2022-12-22T14:48:32.317Z,2.00
2022-12-22T14:51:01.622Z,2.00
2022-12-22T14:53:33.933Z,2.00
2022-12-22T14:56:01.855Z,2.25
2022-12-22T14:58:31.990Z,2.00
2022-12-22T15:01:22.961Z,2.25
2022-12-22T15:04:02.236Z,2.00
2022-12-22T15:06:36.595Z,2.25
2022-12-22T15:09:11.976Z,2.00
2022-12-22T15:11:41.260Z,3.00
2022-12-22T15:14:11.105Z,2.00
2022-12-22T15:16:39.054Z,2.00
2022-12-22T15:19:07.203Z,2.00
2022-12-22T15:21:36.437Z,2.00
2022-12-22T15:24:05.120Z,2.00
2022-12-22T15:26:37.718Z,2.00
2022-12-22T15:29:05.934Z,2.00
2022-12-22T15:31:33.927Z,2.00
2022-12-22T15:34:02.687Z,2.00
2022-12-22T15:36:30.551Z,2.00
2022-12-22T15:38:59.849Z,3.00
2022-12-22T15:41:27.913Z,2.00
2022-12-22T15:43:58.202Z,2.75
2022-12-22T15:46:26.827Z,3.00
2022-12-22T15:48:54.763Z,2.75
2022-12-22T15:51:24.736Z,2.50
2022-12-22T15:53:52.949Z,2.00
2022-12-22T15:56:24.023Z,2.25
2022-12-22T15:58:51.979Z,3.00
2022-12-22T16:01:20.021Z,2.75
2022-12-22T16:03:48.389Z,2.50
2022-12-22T16:06:17.322Z,2.50
2022-12-22T16:08:47.143Z,2.00
2022-12-22T16:11:15.063Z,3.00
2022-12-22T16:13:44.738Z,3.00
2022-12-22T16:16:12.990Z,2.25
2022-12-22T16:18:40.906Z,2.50
2022-12-22T16:21:14.418Z,2.00
2022-12-22T16:23:42.327Z,2.00
2022-12-22T16:26:12.893Z,3.00
2022-12-22T16:28:40.770Z,3.00
2022-12-22T16:31:13.370Z,3.00
2022-12-22T16:33:41.621Z,2.25
2022-12-22T16:36:11.363Z,2.25
2022-12-22T16:38:39.789Z,4.00
2022-12-22T16:41:08.471Z,3.00
2022-12-22T16:46:25.140Z,3.25
2022-12-22T16:48:54.131Z,3.25
2022-12-22T16:51:24.140Z,2.25
2022-12-22T16:53:52.408Z,3.00
2022-12-22T16:56:21.367Z,4.00
2022-12-22T16:58:49.623Z,3.75
2022-12-22T17:01:26.551Z,4.75
2022-12-22T17:03:54.582Z,5.00
2022-12-22T17:06:22.634Z,5.00
2022-12-22T17:08:50.618Z,4.25
2022-12-22T17:11:21.266Z,4.00
2022-12-22T17:13:49.796Z,5.00
2022-12-22T17:16:21.550Z,5.00
2022-12-22T17:18:50.951Z,4.00
2022-12-22T17:21:19.475Z,4.25
2022-12-22T17:23:48.820Z,5.00
2022-12-22T17:26:18.063Z,4.25
2022-12-22T17:28:45.984Z,5.00
2022-12-22T17:31:16.219Z,4.25
2022-12-22T17:33:44.151Z,5.50
2022-12-22T17:36:20.341Z,5.00
2022-12-22T17:38:48.344Z,4.75
2022-12-22T17:41:16.940Z,4.50
2022-12-22T17:43:45.269Z,4.00
2022-12-22T17:46:17.154Z,4.00
2022-12-22T17:48:45.135Z,5.00
2022-12-22T17:51:22.137Z,5.25
2022-12-22T17:53:50.555Z,6.00
2022-12-22T17:56:19.181Z,6.00
2022-12-22T17:58:47.047Z,6.00
2022-12-22T18:01:22.422Z,7.75
2022-12-22T18:03:50.650Z,9.75
2022-12-22T18:06:20.263Z,9.75
2022-12-22T18:08:48.495Z,13.25
2022-12-22T18:11:16.422Z,10.75
2022-12-22T18:13:44.603Z,11.00
2022-12-22T18:16:14.964Z,14.25
2022-12-22T18:18:43.691Z,12.75
2022-12-22T18:21:16.505Z,12.00
2022-12-22T18:23:50.025Z,13.00
2022-12-22T18:26:21.540Z,14.00
2022-12-22T18:28:49.562Z,13.00
2022-12-22T18:31:17.494Z,14.00
2022-12-22T18:33:45.713Z,14.00
2022-12-22T18:36:17.720Z,15.00
2022-12-22T18:38:47.058Z,17.00
2022-12-22T18:41:16.727Z,17.75
2022-12-22T18:43:44.898Z,16.25
2022-12-22T18:46:13.267Z,16.25
2022-12-22T18:48:41.197Z,16.75
2022-12-22T18:51:12.100Z,18.00
2022-12-22T18:53:40.273Z,17.00
2022-12-22T18:56:12.372Z,16.25
2022-12-22T18:58:40.530Z,19.50
2022-12-22T19:01:08.730Z,18.75
2022-12-22T19:03:37.109Z,18.00
2022-12-22T19:06:05.470Z,17.25
2022-12-22T19:08:33.415Z,16.00
2022-12-22T19:11:01.935Z,17.75
2022-12-22T19:13:32.254Z,18.75
2022-12-22T19:16:00.220Z,20.00
2022-12-22T19:18:28.150Z,21.75
2022-12-22T19:20:57.188Z,20.00
2022-12-22T19:23:25.838Z,21.00
2022-12-22T19:25:54.731Z,20.00
2022-12-22T19:28:26.441Z,21.00
2022-12-22T19:30:55.716Z,19.50
2022-12-22T19:33:25.527Z,20.00
2022-12-22T19:35:53.456Z,20.75
2022-12-22T19:38:22.590Z,22.25
2022-12-22T19:40:50.795Z,21.75
2022-12-22T19:43:18.880Z,20.00
2022-12-22T19:45:47.990Z,20.00
2022-12-22T19:48:19.447Z,21.50
2022-12-22T19:50:47.513Z,20.25
2022-12-22T19:53:15.450Z,22.00
2022-12-22T19:55:45.182Z,24.00
2022-12-22T19:58:16.595Z,22.25
2022-12-22T20:00:44.575Z,23.00
2022-12-22T20:03:13.523Z,22.25
2022-12-22T20:05:43.115Z,21.75
2022-12-22T20:08:11.073Z,23.00
2022-12-22T20:10:39.035Z,22.25
2022-12-22T20:13:07.723Z,23.00
2022-12-22T20:15:37.130Z,22.25
2022-12-22T20:18:19.932Z,23.00
2022-12-22T20:20:57.141Z,23.50
2022-12-22T20:23:25.472Z,22.75
2022-12-22T20:25:56.179Z,24.00
2022-12-22T20:28:25.132Z,23.00
2022-12-22T20:30:53.147Z,27.00
2022-12-22T20:33:21.539Z,25.25
2022-12-22T20:35:51.093Z,25.00
2022-12-22T20:38:20.177Z,28.00
2022-12-22T20:40:48.358Z,28.00
2022-12-22T20:43:17.431Z,27.00
2022-12-22T20:45:46.028Z,28.00
2022-12-22T20:48:21.360Z,28.00
2022-12-22T20:50:50.650Z,26.25
2022-12-22T20:53:19.655Z,28.00
2022-12-22T20:55:47.926Z,26.75
2022-12-22T20:58:21.583Z,25.75
2022-12-22T21:00:49.995Z,27.75
2022-12-22T21:03:18.102Z,27.50
2022-12-22T21:05:47.015Z,25.75
2022-12-22T21:08:20.503Z,27.00
2022-12-22T21:10:49.245Z,24.75
2022-12-22T21:13:17.432Z,26.75
2022-12-22T21:15:46.174Z,27.00
2022-12-22T21:18:16.099Z,27.00
2022-12-22T21:20:44.305Z,25.50
2022-12-22T21:23:14.052Z,25.75
2022-12-22T21:25:46.665Z,26.00
2022-12-22T21:28:17.700Z,23.75
2022-12-22T21:30:45.633Z,24.00
2022-12-22T21:33:13.638Z,24.00
2022-12-22T21:35:41.607Z,24.00
2022-12-22T21:38:13.533Z,23.00
2022-12-22T21:40:41.759Z,23.50
2022-12-22T21:43:11.286Z,22.00
2022-12-22T21:45:42.830Z,23.25
2022-12-22T21:48:15.945Z,23.00
2022-12-22T21:50:43.831Z,23.00
2022-12-22T21:53:18.077Z,21.50
2022-12-22T21:55:49.924Z,22.00
2022-12-22T21:58:19.226Z,22.00
2022-12-22T22:00:48.294Z,21.25
2022-12-22T22:03:16.425Z,21.25
2022-12-22T22:05:44.718Z,20.00
2022-12-22T22:08:13.117Z,20.00
2022-12-22T22:10:43.962Z,21.00
2022-12-22T22:13:14.017Z,20.00
2022-12-22T22:15:43.671Z,21.25
2022-12-22T22:18:15.997Z,20.50
2022-12-22T22:20:43.929Z,23.00
2022-12-22T22:23:12.467Z,22.50
2022-12-22T22:25:40.530Z,22.50
2022-12-22T22:28:08.465Z,23.00
2022-12-22T22:30:36.647Z,23.00
2022-12-22T22:33:06.032Z,23.00
2022-12-22T22:35:34.210Z,24.00
2022-12-22T22:38:02.079Z,23.25
2022-12-22T22:40:30.039Z,22.25
2022-12-22T22:42:57.920Z,21.50
2022-12-22T22:45:26.119Z,22.00
2022-12-22T22:47:54.138Z,24.00
2022-12-22T22:50:23.591Z,23.00
2022-12-22T22:52:51.506Z,23.00
2022-12-22T22:55:19.709Z,22.75
2022-12-22T22:57:47.552Z,23.00
2022-12-22T23:00:16.638Z,23.00
2022-12-22T23:02:44.877Z,23.00
2022-12-22T23:05:20.469Z,23.00
2022-12-22T23:07:52.085Z,22.00
2022-12-22T23:10:19.954Z,22.00
2022-12-22T23:12:47.833Z,23.00
2022-12-22T23:15:16.130Z,23.25
2022-12-22T23:17:44.013Z,23.00
2022-12-22T23:20:12.276Z,23.00
2022-12-22T23:22:40.217Z,24.00
2022-12-22T23:25:10.687Z,22.75
2022-12-22T23:27:38.723Z,23.00
2022-12-22T23:30:09.686Z,23.00
2022-12-22T23:32:37.579Z,23.75
2022-12-22T23:35:07.146Z,22.50
2022-12-22T23:37:35.076Z,22.75
2022-12-22T23:40:33.290Z,22.75
2022-12-22T23:42:56.807Z,23.00
2022-12-22T23:45:25.658Z,22.25
2022-12-22T23:47:53.635Z,22.00
2022-12-22T23:50:21.513Z,22.00
2022-12-22T23:52:49.608Z,21.00
2022-12-22T23:55:18.217Z,20.75
2022-12-22T23:57:46.110Z,22.00
